sensor_id;sensor_type;location;lat;lon;timestamp;P1;durP1;ratioP1;P2;durP2;ratioP2
17997;SDS011;9124;48.144;17.098;2023-09-30T00:00:38;14.55;;;10.75;;
17997;SDS011;9124;48.144;17.098;2023-09-30T00:05:05;14.45;;;11.52;;
17997;SDS011;9124;48.144;17.098;2023-09-30T00:09:32;12.00;;;10.85;;
17997;SDS011;9124;48.144;17.098;2023-09-30T00:13:59;15.63;;;12.02;;
17997;SDS011;9124;48.144;17.098;2023-09-30T00:18:25;13.70;;;12.60;;
17997;SDS011;9124;48.144;17.098;2023-09-30T00:22:53;15.00;;;12.75;;
17997;SDS011;9124;48.144;17.098;2023-09-30T00:27:19;16.58;;;13.25;;
17997;SDS011;9124;48.144;17.098;2023-09-30T00:31:45;18.95;;;13.38;;
17997;SDS011;9124;48.144;17.098;2023-09-30T00:36:12;12.63;;;11.43;;
17997;SDS011;9124;48.144;17.098;2023-09-30T00:40:38;18.10;;;11.55;;
17997;SDS011;9124;48.144;17.098;2023-09-30T00:45:05;11.52;;;10.38;;
17997;SDS011;9124;48.144;17.098;2023-09-30T00:49:32;12.90;;;11.23;;
17997;SDS011;9124;48.144;17.098;2023-09-30T00:53:59;12.68;;;11.48;;
17997;SDS011;9124;48.144;17.098;2023-09-30T00:58:27;14.18;;;11.13;;
17997;SDS011;9124;48.144;17.098;2023-09-30T01:02:54;12.80;;;11.45;;
17997;SDS011;9124;48.144;17.098;2023-09-30T01:07:22;14.63;;;13.18;;
17997;SDS011;9124;48.144;17.098;2023-09-30T01:11:49;15.57;;;13.52;;
17997;SDS011;9124;48.144;17.098;2023-09-30T01:16:15;13.80;;;12.60;;
17997;SDS011;9124;48.144;17.098;2023-09-30T01:20:42;15.02;;;11.45;;
17997;SDS011;9124;48.144;17.098;2023-09-30T01:25:09;18.50;;;11.18;;
17997;SDS011;9124;48.144;17.098;2023-09-30T01:29:35;16.65;;;13.02;;
17997;SDS011;9124;48.144;17.098;2023-09-30T01:34:05;17.73;;;11.48;;
17997;SDS011;9124;48.144;17.098;2023-09-30T01:38:31;13.38;;;12.23;;
17997;SDS011;9124;48.144;17.098;2023-09-30T01:42:58;13.75;;;11.48;;
17997;SDS011;9124;48.144;17.098;2023-09-30T01:47:25;12.38;;;10.45;;
17997;SDS011;9124;48.144;17.098;2023-09-30T01:51:51;14.07;;;10.73;;
17997;SDS011;9124;48.144;17.098;2023-09-30T01:56:18;13.73;;;9.90;;
17997;SDS011;9124;48.144;17.098;2023-09-30T02:00:44;10.73;;;9.77;;
17997;SDS011;9124;48.144;17.098;2023-09-30T02:05:11;11.05;;;9.38;;
17997;SDS011;9124;48.144;17.098;2023-09-30T02:09:37;12.40;;;8.45;;
17997;SDS011;9124;48.144;17.098;2023-09-30T02:14:04;17.05;;;9.23;;
17997;SDS011;9124;48.144;17.098;2023-09-30T02:18:33;10.38;;;9.13;;
17997;SDS011;9124;48.144;17.098;2023-09-30T02:23:00;9.60;;;8.70;;
17997;SDS011;9124;48.144;17.098;2023-09-30T02:27:27;15.27;;;9.05;;
17997;SDS011;9124;48.144;17.098;2023-09-30T02:31:54;11.70;;;8.93;;
17997;SDS011;9124;48.144;17.098;2023-09-30T02:36:20;10.23;;;8.98;;
17997;SDS011;9124;48.144;17.098;2023-09-30T02:40:49;10.18;;;8.68;;
17997;SDS011;9124;48.144;17.098;2023-09-30T02:45:17;16.25;;;9.02;;
17997;SDS011;9124;48.144;17.098;2023-09-30T02:49:44;12.10;;;9.20;;
17997;SDS011;9124;48.144;17.098;2023-09-30T02:54:10;11.32;;;8.60;;
17997;SDS011;9124;48.144;17.098;2023-09-30T02:58:42;15.40;;;8.65;;
17997;SDS011;9124;48.144;17.098;2023-09-30T03:03:08;12.50;;;9.48;;
17997;SDS011;9124;48.144;17.098;2023-09-30T03:07:35;12.45;;;9.25;;
17997;SDS011;9124;48.144;17.098;2023-09-30T03:12:04;16.15;;;8.48;;
17997;SDS011;9124;48.144;17.098;2023-09-30T03:16:31;13.52;;;8.88;;
17997;SDS011;9124;48.144;17.098;2023-09-30T03:20:59;13.88;;;8.43;;
17997;SDS011;9124;48.144;17.098;2023-09-30T03:25:27;10.68;;;8.60;;
17997;SDS011;9124;48.144;17.098;2023-09-30T03:29:56;9.23;;;8.40;;
17997;SDS011;9124;48.144;17.098;2023-09-30T03:34:22;9.88;;;8.98;;
17997;SDS011;9124;48.144;17.098;2023-09-30T03:38:49;12.18;;;9.90;;
17997;SDS011;9124;48.144;17.098;2023-09-30T03:43:15;10.10;;;9.15;;
17997;SDS011;9124;48.144;17.098;2023-09-30T03:47:42;12.15;;;9.02;;
17997;SDS011;9124;48.144;17.098;2023-09-30T03:52:09;10.48;;;8.02;;
17997;SDS011;9124;48.144;17.098;2023-09-30T03:56:37;13.32;;;9.60;;
17997;SDS011;9124;48.144;17.098;2023-09-30T04:01:04;11.15;;;9.07;;
17997;SDS011;9124;48.144;17.098;2023-09-30T04:05:30;10.38;;;9.55;;
17997;SDS011;9124;48.144;17.098;2023-09-30T04:10:02;9.80;;;8.80;;
17997;SDS011;9124;48.144;17.098;2023-09-30T04:14:30;17.63;;;9.13;;
17997;SDS011;9124;48.144;17.098;2023-09-30T04:18:56;12.57;;;9.05;;
17997;SDS011;9124;48.144;17.098;2023-09-30T04:23:22;10.50;;;8.98;;
17997;SDS011;9124;48.144;17.098;2023-09-30T04:27:49;12.45;;;8.90;;
17997;SDS011;9124;48.144;17.098;2023-09-30T04:32:15;8.73;;;8.02;;
17997;SDS011;9124;48.144;17.098;2023-09-30T04:36:41;9.32;;;8.30;;
17997;SDS011;9124;48.144;17.098;2023-09-30T04:41:08;9.70;;;7.95;;
17997;SDS011;9124;48.144;17.098;2023-09-30T04:45:34;9.20;;;7.93;;
17997;SDS011;9124;48.144;17.098;2023-09-30T04:50:01;9.07;;;7.72;;
17997;SDS011;9124;48.144;17.098;2023-09-30T04:54:33;14.75;;;7.88;;
17997;SDS011;9124;48.144;17.098;2023-09-30T04:59:01;11.82;;;7.78;;
17997;SDS011;9124;48.144;17.098;2023-09-30T05:03:29;9.77;;;7.88;;
17997;SDS011;9124;48.144;17.098;2023-09-30T05:07:56;8.55;;;7.85;;
17997;SDS011;9124;48.144;17.098;2023-09-30T05:12:23;14.50;;;8.10;;
17997;SDS011;9124;48.144;17.098;2023-09-30T05:16:49;9.50;;;8.13;;
17997;SDS011;9124;48.144;17.098;2023-09-30T05:21:16;10.05;;;8.40;;
17997;SDS011;9124;48.144;17.098;2023-09-30T05:25:42;10.65;;;8.48;;
17997;SDS011;9124;48.144;17.098;2023-09-30T05:30:08;9.80;;;7.90;;
17997;SDS011;9124;48.144;17.098;2023-09-30T05:34:36;10.25;;;7.63;;
17997;SDS011;9124;48.144;17.098;2023-09-30T05:39:04;11.52;;;8.30;;
17997;SDS011;9124;48.144;17.098;2023-09-30T05:43:31;10.45;;;8.15;;
17997;SDS011;9124;48.144;17.098;2023-09-30T05:47:58;10.10;;;9.07;;
17997;SDS011;9124;48.144;17.098;2023-09-30T05:52:28;10.30;;;9.43;;
17997;SDS011;9124;48.144;17.098;2023-09-30T05:56:55;11.73;;;10.63;;
17997;SDS011;9124;48.144;17.098;2023-09-30T06:01:22;11.82;;;10.88;;
17997;SDS011;9124;48.144;17.098;2023-09-30T06:05:48;11.57;;;10.65;;
17997;SDS011;9124;48.144;17.098;2023-09-30T06:10:14;12.00;;;11.20;;
17997;SDS011;9124;48.144;17.098;2023-09-30T06:14:41;11.18;;;10.30;;
17997;SDS011;9124;48.144;17.098;2023-09-30T06:19:08;11.32;;;10.32;;
17997;SDS011;9124;48.144;17.098;2023-09-30T06:23:35;15.38;;;11.27;;
17997;SDS011;9124;48.144;17.098;2023-09-30T06:28:01;12.23;;;11.25;;
17997;SDS011;9124;48.144;17.098;2023-09-30T06:32:29;12.73;;;11.43;;
17997;SDS011;9124;48.144;17.098;2023-09-30T06:36:55;15.35;;;11.15;;
17997;SDS011;9124;48.144;17.098;2023-09-30T06:41:22;12.13;;;10.95;;
17997;SDS011;9124;48.144;17.098;2023-09-30T06:45:48;12.77;;;11.45;;
17997;SDS011;9124;48.144;17.098;2023-09-30T06:50:15;11.25;;;10.23;;
17997;SDS011;9124;48.144;17.098;2023-09-30T06:54:42;12.10;;;10.30;;
17997;SDS011;9124;48.144;17.098;2023-09-30T06:59:09;12.52;;;11.25;;
17997;SDS011;9124;48.144;17.098;2023-09-30T07:03:35;16.27;;;10.52;;
17997;SDS011;9124;48.144;17.098;2023-09-30T07:08:02;11.90;;;10.35;;
17997;SDS011;9124;48.144;17.098;2023-09-30T07:12:28;14.15;;;11.02;;
17997;SDS011;9124;48.144;17.098;2023-09-30T07:16:57;17.00;;;10.48;;
17997;SDS011;9124;48.144;17.098;2023-09-30T07:21:24;15.93;;;12.05;;
17997;SDS011;9124;48.144;17.098;2023-09-30T07:25:50;15.50;;;10.68;;
17997;SDS011;9124;48.144;17.098;2023-09-30T07:30:17;18.10;;;11.82;;
17997;SDS011;9124;48.144;17.098;2023-09-30T07:34:44;12.20;;;10.95;;
17997;SDS011;9124;48.144;17.098;2023-09-30T07:39:10;14.43;;;11.00;;
17997;SDS011;9124;48.144;17.098;2023-09-30T07:43:37;16.98;;;11.55;;
17997;SDS011;9124;48.144;17.098;2023-09-30T07:48:03;16.58;;;11.45;;
17997;SDS011;9124;48.144;17.098;2023-09-30T07:52:30;14.05;;;11.10;;
17997;SDS011;9124;48.144;17.098;2023-09-30T07:56:56;20.77;;;11.57;;
17997;SDS011;9124;48.144;17.098;2023-09-30T08:01:24;15.52;;;11.45;;
17997;SDS011;9124;48.144;17.098;2023-09-30T08:05:52;18.67;;;11.90;;
17997;SDS011;9124;48.144;17.098;2023-09-30T08:10:19;13.32;;;11.05;;
17997;SDS011;9124;48.144;17.098;2023-09-30T08:14:46;17.95;;;11.52;;
17997;SDS011;9124;48.144;17.098;2023-09-30T08:19:15;17.35;;;11.77;;
17997;SDS011;9124;48.144;17.098;2023-09-30T08:23:42;12.63;;;11.25;;
17997;SDS011;9124;48.144;17.098;2023-09-30T08:28:09;15.30;;;11.52;;
17997;SDS011;9124;48.144;17.098;2023-09-30T08:32:38;13.82;;;11.07;;
17997;SDS011;9124;48.144;17.098;2023-09-30T08:37:05;16.58;;;11.30;;
17997;SDS011;9124;48.144;17.098;2023-09-30T08:41:32;16.40;;;12.43;;
17997;SDS011;9124;48.144;17.098;2023-09-30T08:46:01;14.88;;;11.13;;
17997;SDS011;9124;48.144;17.098;2023-09-30T08:50:32;17.95;;;11.75;;
17997;SDS011;9124;48.144;17.098;2023-09-30T08:54:59;18.98;;;13.15;;
17997;SDS011;9124;48.144;17.098;2023-09-30T08:59:27;13.88;;;11.40;;
17997;SDS011;9124;48.144;17.098;2023-09-30T09:03:54;18.17;;;12.68;;
17997;SDS011;9124;48.144;17.098;2023-09-30T09:08:21;19.27;;;12.43;;
17997;SDS011;9124;48.144;17.098;2023-09-30T09:12:55;17.75;;;12.00;;
17997;SDS011;9124;48.144;17.098;2023-09-30T09:17:23;18.02;;;12.60;;
17997;SDS011;9124;48.144;17.098;2023-09-30T09:21:56;16.50;;;12.73;;
17997;SDS011;9124;48.144;17.098;2023-09-30T09:30:55;15.30;;;12.45;;
17997;SDS011;9124;48.144;17.098;2023-09-30T09:35:22;19.92;;;14.70;;
17997;SDS011;9124;48.144;17.098;2023-09-30T09:39:57;20.35;;;15.38;;
17997;SDS011;9124;48.144;17.098;2023-09-30T09:44:24;26.33;;;16.08;;
17997;SDS011;9124;48.144;17.098;2023-09-30T09:48:53;28.15;;;16.88;;
17997;SDS011;9124;48.144;17.098;2023-09-30T09:53:20;24.13;;;17.38;;
17997;SDS011;9124;48.144;17.098;2023-09-30T09:57:47;26.90;;;17.50;;
17997;SDS011;9124;48.144;17.098;2023-09-30T10:02:15;23.00;;;16.55;;
17997;SDS011;9124;48.144;17.098;2023-09-30T10:06:44;25.67;;;16.92;;
17997;SDS011;9124;48.144;17.098;2023-09-30T10:11:18;31.27;;;17.88;;
17997;SDS011;9124;48.144;17.098;2023-09-30T10:15:45;24.95;;;16.13;;
17997;SDS011;9124;48.144;17.098;2023-09-30T10:20:11;23.65;;;17.60;;
17997;SDS011;9124;48.144;17.098;2023-09-30T10:24:37;28.63;;;18.13;;
17997;SDS011;9124;48.144;17.098;2023-09-30T10:29:08;34.17;;;17.98;;
17997;SDS011;9124;48.144;17.098;2023-09-30T10:33:35;25.20;;;17.30;;
17997;SDS011;9124;48.144;17.098;2023-09-30T10:42:50;24.67;;;16.65;;
17997;SDS011;9124;48.144;17.098;2023-09-30T10:52:09;27.58;;;17.50;;
17997;SDS011;9124;48.144;17.098;2023-09-30T10:56:36;24.25;;;16.67;;
17997;SDS011;9124;48.144;17.098;2023-09-30T11:01:02;23.98;;;16.92;;
17997;SDS011;9124;48.144;17.098;2023-09-30T11:05:32;28.67;;;17.13;;
17997;SDS011;9124;48.144;17.098;2023-09-30T11:10:01;24.20;;;15.63;;
17997;SDS011;9124;48.144;17.098;2023-09-30T11:14:31;26.52;;;15.63;;
17997;SDS011;9124;48.144;17.098;2023-09-30T11:18:57;31.00;;;16.33;;
17997;SDS011;9124;48.144;17.098;2023-09-30T11:23:23;29.60;;;17.77;;
17997;SDS011;9124;48.144;17.098;2023-09-30T11:27:51;27.95;;;16.58;;
17997;SDS011;9124;48.144;17.098;2023-09-30T11:32:27;26.00;;;16.85;;
17997;SDS011;9124;48.144;17.098;2023-09-30T11:36:56;30.50;;;17.90;;
17997;SDS011;9124;48.144;17.098;2023-09-30T11:41:31;24.73;;;15.95;;
17997;SDS011;9124;48.144;17.098;2023-09-30T11:46:07;24.02;;;15.80;;
17997;SDS011;9124;48.144;17.098;2023-09-30T11:50:52;26.83;;;17.55;;
17997;SDS011;9124;48.144;17.098;2023-09-30T11:55:21;24.10;;;16.60;;
17997;SDS011;9124;48.144;17.098;2023-09-30T11:59:48;38.47;;;18.48;;
17997;SDS011;9124;48.144;17.098;2023-09-30T12:04:15;31.92;;;18.73;;
17997;SDS011;9124;48.144;17.098;2023-09-30T12:08:44;27.67;;;17.92;;
17997;SDS011;9124;48.144;17.098;2023-09-30T12:13:10;34.45;;;19.95;;
17997;SDS011;9124;48.144;17.098;2023-09-30T12:17:37;30.73;;;18.92;;
17997;SDS011;9124;48.144;17.098;2023-09-30T12:22:05;29.95;;;18.65;;
17997;SDS011;9124;48.144;17.098;2023-09-30T12:26:32;33.55;;;19.20;;
17997;SDS011;9124;48.144;17.098;2023-09-30T12:31:01;33.42;;;20.08;;
17997;SDS011;9124;48.144;17.098;2023-09-30T12:35:28;34.88;;;20.38;;
17997;SDS011;9124;48.144;17.098;2023-09-30T12:39:58;33.55;;;21.38;;
17997;SDS011;9124;48.144;17.098;2023-09-30T12:44:24;39.35;;;21.20;;
17997;SDS011;9124;48.144;17.098;2023-09-30T12:48:51;34.38;;;20.42;;
17997;SDS011;9124;48.144;17.098;2023-09-30T12:53:17;31.00;;;19.92;;
17997;SDS011;9124;48.144;17.098;2023-09-30T12:57:44;31.85;;;19.90;;
17997;SDS011;9124;48.144;17.098;2023-09-30T13:02:10;32.10;;;18.65;;
17997;SDS011;9124;48.144;17.098;2023-09-30T13:06:37;33.33;;;20.30;;
17997;SDS011;9124;48.144;17.098;2023-09-30T13:11:03;31.88;;;20.00;;
17997;SDS011;9124;48.144;17.098;2023-09-30T13:15:30;36.97;;;20.60;;
17997;SDS011;9124;48.144;17.098;2023-09-30T13:19:56;35.03;;;20.38;;
17997;SDS011;9124;48.144;17.098;2023-09-30T13:24:24;33.05;;;19.83;;
17997;SDS011;9124;48.144;17.098;2023-09-30T13:28:52;33.15;;;20.63;;
17997;SDS011;9124;48.144;17.098;2023-09-30T13:33:19;31.15;;;19.77;;
17997;SDS011;9124;48.144;17.098;2023-09-30T13:37:48;39.78;;;21.08;;
17997;SDS011;9124;48.144;17.098;2023-09-30T13:42:15;32.97;;;19.40;;
17997;SDS011;9124;48.144;17.098;2023-09-30T13:46:41;30.95;;;18.85;;
17997;SDS011;9124;48.144;17.098;2023-09-30T13:51:08;27.63;;;18.55;;
17997;SDS011;9124;48.144;17.098;2023-09-30T13:55:39;35.30;;;18.40;;
17997;SDS011;9124;48.144;17.098;2023-09-30T14:00:06;33.42;;;18.40;;
17997;SDS011;9124;48.144;17.098;2023-09-30T14:04:37;33.85;;;17.33;;
17997;SDS011;9124;48.144;17.098;2023-09-30T14:09:04;25.95;;;15.70;;
17997;SDS011;9124;48.144;17.098;2023-09-30T14:13:30;28.13;;;16.05;;
17997;SDS011;9124;48.144;17.098;2023-09-30T14:17:58;25.85;;;16.42;;
17997;SDS011;9124;48.144;17.098;2023-09-30T14:22:27;21.60;;;14.38;;
17997;SDS011;9124;48.144;17.098;2023-09-30T14:26:54;20.73;;;14.13;;
17997;SDS011;9124;48.144;17.098;2023-09-30T14:31:21;18.60;;;13.25;;
17997;SDS011;9124;48.144;17.098;2023-09-30T14:35:48;19.83;;;14.02;;
17997;SDS011;9124;48.144;17.098;2023-09-30T14:40:14;18.98;;;13.07;;
17997;SDS011;9124;48.144;17.098;2023-09-30T14:44:41;18.00;;;12.35;;
17997;SDS011;9124;48.144;17.098;2023-09-30T14:49:08;18.33;;;12.43;;
17997;SDS011;9124;48.144;17.098;2023-09-30T14:53:35;19.52;;;13.05;;
17997;SDS011;9124;48.144;17.098;2023-09-30T14:58:01;18.52;;;12.63;;
17997;SDS011;9124;48.144;17.098;2023-09-30T15:02:28;15.45;;;11.68;;
17997;SDS011;9124;48.144;17.098;2023-09-30T15:06:55;16.45;;;12.35;;
17997;SDS011;9124;48.144;17.098;2023-09-30T15:11:21;17.98;;;12.15;;
17997;SDS011;9124;48.144;17.098;2023-09-30T15:15:49;16.45;;;11.55;;
17997;SDS011;9124;48.144;17.098;2023-09-30T15:20:16;16.02;;;11.50;;
17997;SDS011;9124;48.144;17.098;2023-09-30T15:24:42;17.25;;;10.90;;
17997;SDS011;9124;48.144;17.098;2023-09-30T15:29:08;16.10;;;10.23;;
17997;SDS011;9124;48.144;17.098;2023-09-30T15:33:34;12.27;;;9.65;;
17997;SDS011;9124;48.144;17.098;2023-09-30T15:38:01;11.80;;;10.23;;
17997;SDS011;9124;48.144;17.098;2023-09-30T15:42:30;12.30;;;9.13;;
17997;SDS011;9124;48.144;17.098;2023-09-30T15:46:57;11.45;;;8.63;;
17997;SDS011;9124;48.144;17.098;2023-09-30T15:51:23;8.10;;;7.35;;
17997;SDS011;9124;48.144;17.098;2023-09-30T15:55:49;8.57;;;7.78;;
17997;SDS011;9124;48.144;17.098;2023-09-30T16:00:16;9.07;;;8.15;;
17997;SDS011;9124;48.144;17.098;2023-09-30T16:04:42;11.85;;;8.57;;
17997;SDS011;9124;48.144;17.098;2023-09-30T16:09:09;10.63;;;8.38;;
17997;SDS011;9124;48.144;17.098;2023-09-30T16:13:35;6.90;;;6.13;;
17997;SDS011;9124;48.144;17.098;2023-09-30T16:18:01;8.75;;;6.47;;
17997;SDS011;9124;48.144;17.098;2023-09-30T16:22:28;6.95;;;5.00;;
17997;SDS011;9124;48.144;17.098;2023-09-30T16:26:54;4.88;;;4.03;;
17997;SDS011;9124;48.144;17.098;2023-09-30T16:31:20;5.97;;;4.30;;
17997;SDS011;9124;48.144;17.098;2023-09-30T16:35:47;5.15;;;4.60;;
17997;SDS011;9124;48.144;17.098;2023-09-30T16:40:16;4.07;;;3.70;;
17997;SDS011;9124;48.144;17.098;2023-09-30T16:44:42;3.22;;;3.03;;
17997;SDS011;9124;48.144;17.098;2023-09-30T16:49:10;3.72;;;3.42;;
17997;SDS011;9124;48.144;17.098;2023-09-30T16:53:37;4.38;;;4.00;;
17997;SDS011;9124;48.144;17.098;2023-09-30T16:58:03;3.50;;;3.20;;
17997;SDS011;9124;48.144;17.098;2023-09-30T17:02:33;3.88;;;2.83;;
17997;SDS011;9124;48.144;17.098;2023-09-30T17:06:59;3.88;;;3.40;;
17997;SDS011;9124;48.144;17.098;2023-09-30T17:11:25;3.17;;;2.88;;
17997;SDS011;9124;48.144;17.098;2023-09-30T17:15:51;6.32;;;2.88;;
17997;SDS011;9124;48.144;17.098;2023-09-30T17:20:18;3.17;;;2.88;;
17997;SDS011;9124;48.144;17.098;2023-09-30T17:24:45;2.97;;;2.67;;
17997;SDS011;9124;48.144;17.098;2023-09-30T17:29:12;12.52;;;2.70;;
17997;SDS011;9124;48.144;17.098;2023-09-30T17:33:38;2.92;;;2.63;;
17997;SDS011;9124;48.144;17.098;2023-09-30T17:38:06;2.35;;;2.15;;
17997;SDS011;9124;48.144;17.098;2023-09-30T17:42:32;3.22;;;2.22;;
17997;SDS011;9124;48.144;17.098;2023-09-30T17:46:59;2.42;;;2.08;;
17997;SDS011;9124;48.144;17.098;2023-09-30T17:51:29;2.70;;;2.45;;
17997;SDS011;9124;48.144;17.098;2023-09-30T17:55:57;4.22;;;2.88;;
17997;SDS011;9124;48.144;17.098;2023-09-30T18:00:23;3.85;;;2.45;;
17997;SDS011;9124;48.144;17.098;2023-09-30T18:04:52;4.88;;;2.90;;
17997;SDS011;9124;48.144;17.098;2023-09-30T18:09:20;4.53;;;2.88;;
17997;SDS011;9124;48.144;17.098;2023-09-30T18:13:46;5.45;;;3.22;;
17997;SDS011;9124;48.144;17.098;2023-09-30T18:18:13;6.80;;;2.88;;
17997;SDS011;9124;48.144;17.098;2023-09-30T18:22:40;4.80;;;3.22;;
17997;SDS011;9124;48.144;17.098;2023-09-30T18:27:06;4.97;;;3.95;;
17997;SDS011;9124;48.144;17.098;2023-09-30T18:31:32;6.35;;;3.88;;
17997;SDS011;9124;48.144;17.098;2023-09-30T18:35:59;4.88;;;4.03;;
17997;SDS011;9124;48.144;17.098;2023-09-30T18:40:25;7.25;;;4.57;;
17997;SDS011;9124;48.144;17.098;2023-09-30T18:44:53;6.35;;;5.05;;
17997;SDS011;9124;48.144;17.098;2023-09-30T18:49:19;8.77;;;5.65;;
17997;SDS011;9124;48.144;17.098;2023-09-30T18:53:45;7.53;;;5.18;;
17997;SDS011;9124;48.144;17.098;2023-09-30T18:58:12;10.18;;;5.72;;
17997;SDS011;9124;48.144;17.098;2023-09-30T19:02:38;6.90;;;6.22;;
17997;SDS011;9124;48.144;17.098;2023-09-30T19:07:05;12.02;;;6.15;;
17997;SDS011;9124;48.144;17.098;2023-09-30T19:11:31;7.13;;;6.43;;
17997;SDS011;9124;48.144;17.098;2023-09-30T19:15:57;6.70;;;6.03;;
17997;SDS011;9124;48.144;17.098;2023-09-30T19:20:24;6.85;;;6.25;;
17997;SDS011;9124;48.144;17.098;2023-09-30T19:24:50;7.55;;;6.88;;
17997;SDS011;9124;48.144;17.098;2023-09-30T19:29:16;7.78;;;6.78;;
17997;SDS011;9124;48.144;17.098;2023-09-30T19:33:43;8.25;;;6.95;;
17997;SDS011;9124;48.144;17.098;2023-09-30T19:38:11;8.45;;;7.28;;
17997;SDS011;9124;48.144;17.098;2023-09-30T19:42:38;7.68;;;6.97;;
17997;SDS011;9124;48.144;17.098;2023-09-30T19:47:07;8.07;;;7.50;;
17997;SDS011;9124;48.144;17.098;2023-09-30T19:51:35;8.98;;;7.45;;
17997;SDS011;9124;48.144;17.098;2023-09-30T19:56:04;10.13;;;7.47;;
17997;SDS011;9124;48.144;17.098;2023-09-30T20:00:36;13.32;;;7.78;;
17997;SDS011;9124;48.144;17.098;2023-09-30T20:05:03;8.40;;;7.57;;
17997;SDS011;9124;48.144;17.098;2023-09-30T20:09:31;8.45;;;7.65;;
17997;SDS011;9124;48.144;17.098;2023-09-30T20:13:57;12.30;;;8.02;;
17997;SDS011;9124;48.144;17.098;2023-09-30T20:18:24;9.73;;;7.63;;
17997;SDS011;9124;48.144;17.098;2023-09-30T20:22:51;8.82;;;8.00;;
17997;SDS011;9124;48.144;17.098;2023-09-30T20:27:17;11.82;;;7.35;;
17997;SDS011;9124;48.144;17.098;2023-09-30T20:31:43;11.55;;;7.93;;
17997;SDS011;9124;48.144;17.098;2023-09-30T20:36:10;13.63;;;7.00;;
17997;SDS011;9124;48.144;17.098;2023-09-30T20:40:41;9.52;;;6.88;;
17997;SDS011;9124;48.144;17.098;2023-09-30T20:45:15;8.48;;;7.65;;
17997;SDS011;9124;48.144;17.098;2023-09-30T20:49:41;9.45;;;8.00;;
17997;SDS011;9124;48.144;17.098;2023-09-30T20:54:07;12.52;;;9.93;;
17997;SDS011;9124;48.144;17.098;2023-09-30T20:58:35;12.07;;;10.95;;
17997;SDS011;9124;48.144;17.098;2023-09-30T21:03:01;12.60;;;11.32;;
17997;SDS011;9124;48.144;17.098;2023-09-30T21:07:28;12.55;;;11.45;;
17997;SDS011;9124;48.144;17.098;2023-09-30T21:11:54;14.45;;;10.93;;
17997;SDS011;9124;48.144;17.098;2023-09-30T21:16:21;11.93;;;10.85;;
17997;SDS011;9124;48.144;17.098;2023-09-30T21:20:47;11.57;;;10.45;;
17997;SDS011;9124;48.144;17.098;2023-09-30T21:25:13;11.52;;;10.35;;
17997;SDS011;9124;48.144;17.098;2023-09-30T21:29:40;14.60;;;12.50;;
17997;SDS011;9124;48.144;17.098;2023-09-30T21:34:06;20.05;;;15.63;;
17997;SDS011;9124;48.144;17.098;2023-09-30T21:38:33;18.80;;;16.02;;
17997;SDS011;9124;48.144;17.098;2023-09-30T21:43:00;20.13;;;15.85;;
17997;SDS011;9124;48.144;17.098;2023-09-30T21:47:26;22.45;;;20.15;;
17997;SDS011;9124;48.144;17.098;2023-09-30T21:51:52;26.40;;;21.05;;
17997;SDS011;9124;48.144;17.098;2023-09-30T21:56:19;24.00;;;21.65;;
17997;SDS011;9124;48.144;17.098;2023-09-30T22:00:46;21.20;;;19.13;;
17997;SDS011;9124;48.144;17.098;2023-09-30T22:05:13;22.13;;;20.05;;
17997;SDS011;9124;48.144;17.098;2023-09-30T22:09:39;22.80;;;19.88;;
17997;SDS011;9124;48.144;17.098;2023-09-30T22:14:06;26.67;;;24.02;;
17997;SDS011;9124;48.144;17.098;2023-09-30T22:18:33;33.47;;;29.77;;
17997;SDS011;9124;48.144;17.098;2023-09-30T22:22:59;37.50;;;32.40;;
17997;SDS011;9124;48.144;17.098;2023-09-30T22:27:29;37.22;;;33.40;;
17997;SDS011;9124;48.144;17.098;2023-09-30T22:31:56;38.10;;;34.03;;
17997;SDS011;9124;48.144;17.098;2023-09-30T22:36:22;51.38;;;37.80;;
17997;SDS011;9124;48.144;17.098;2023-09-30T22:40:49;42.25;;;35.72;;
17997;SDS011;9124;48.144;17.098;2023-09-30T22:45:16;45.13;;;34.72;;
17997;SDS011;9124;48.144;17.098;2023-09-30T22:49:42;41.38;;;31.27;;
17997;SDS011;9124;48.144;17.098;2023-09-30T22:54:08;43.20;;;33.65;;
17997;SDS011;9124;48.144;17.098;2023-09-30T22:58:35;37.88;;;31.67;;
17997;SDS011;9124;48.144;17.098;2023-09-30T23:03:02;47.58;;;33.47;;
17997;SDS011;9124;48.144;17.098;2023-09-30T23:07:29;39.50;;;32.13;;
17997;SDS011;9124;48.144;17.098;2023-09-30T23:11:55;42.13;;;32.28;;
17997;SDS011;9124;48.144;17.098;2023-09-30T23:16:21;43.88;;;32.47;;
17997;SDS011;9124;48.144;17.098;2023-09-30T23:20:47;45.85;;;32.35;;
17997;SDS011;9124;48.144;17.098;2023-09-30T23:25:14;42.80;;;31.27;;
17997;SDS011;9124;48.144;17.098;2023-09-30T23:29:43;47.35;;;33.05;;
17997;SDS011;9124;48.144;17.098;2023-09-30T23:34:10;47.85;;;30.30;;
17997;SDS011;9124;48.144;17.098;2023-09-30T23:38:38;48.78;;;32.38;;
17997;SDS011;9124;48.144;17.098;2023-09-30T23:43:05;40.58;;;30.63;;
17997;SDS011;9124;48.144;17.098;2023-09-30T23:47:33;46.58;;;31.42;;
17997;SDS011;9124;48.144;17.098;2023-09-30T23:51:59;39.03;;;29.90;;
17997;SDS011;9124;48.144;17.098;2023-09-30T23:56:26;45.00;;;33.20;;
